createdAt,value
2019-02-21T00:01:40.947Z,19.87
2019-02-21T00:04:07.324Z,24.80
2019-02-21T00:06:33.635Z,28.97
2019-02-21T00:08:59.974Z,28.70
2019-02-21T00:11:26.584Z,27.40
2019-02-21T00:13:53.070Z,23.70
2019-02-21T00:16:19.637Z,25.90
2019-02-21T00:18:46.208Z,23.60
2019-02-21T00:21:12.926Z,22.27
2019-02-21T00:23:39.253Z,23.73
2019-02-21T00:26:05.849Z,24.80
2019-02-21T00:28:32.586Z,21.43
2019-02-21T00:30:59.220Z,25.83
2019-02-21T00:33:25.797Z,21.13
2019-02-21T00:35:52.138Z,24.30
2019-02-21T00:38:18.446Z,21.30
2019-02-21T00:40:46.059Z,29.03
2019-02-21T00:43:12.390Z,26.13
2019-02-21T00:45:38.797Z,33.50
2019-02-21T00:48:05.402Z,21.57
2019-02-21T00:50:31.740Z,24.17
2019-02-21T00:52:58.119Z,20.37
2019-02-21T00:55:24.457Z,26.17
2019-02-21T00:57:51.073Z,19.30
2019-02-21T01:00:17.669Z,22.70
2019-02-21T01:02:44.038Z,25.97
2019-02-21T01:05:10.364Z,28.50
2019-02-21T01:07:36.775Z,27.00
2019-02-21T01:10:05.546Z,24.50
2019-02-21T01:12:31.845Z,23.03
2019-02-21T01:14:58.228Z,24.03
2019-02-21T01:17:24.710Z,20.47
2019-02-21T01:19:51.017Z,25.90
2019-02-21T01:22:17.413Z,21.53
2019-02-21T01:24:43.902Z,28.67
2019-02-21T01:27:10.519Z,18.53
2019-02-21T01:29:36.844Z,26.03
2019-02-21T01:32:03.253Z,26.03
2019-02-21T01:34:30.567Z,28.23
2019-02-21T01:36:57.212Z,21.63
2019-02-21T01:39:23.944Z,24.30
2019-02-21T01:41:51.885Z,19.57
2019-02-21T01:44:18.959Z,17.93
2019-02-21T01:46:45.347Z,19.50
2019-02-21T01:49:11.770Z,26.67
2019-02-21T01:51:38.131Z,30.17
2019-02-21T01:54:04.975Z,20.77
2019-02-21T01:56:31.328Z,25.20
2019-02-21T01:58:57.624Z,25.87
2019-02-21T02:01:24.019Z,29.23
2019-02-21T02:03:50.632Z,19.83
2019-02-21T02:06:16.972Z,22.37
2019-02-21T02:08:43.322Z,17.40
2019-02-21T02:11:09.651Z,17.60
2019-02-21T02:13:36.276Z,25.90
2019-02-21T02:16:02.610Z,23.50
2019-02-21T02:18:29.202Z,22.47
2019-02-21T02:20:55.596Z,20.90
2019-02-21T02:23:21.940Z,21.67
2019-02-21T02:25:48.667Z,21.03
2019-02-21T02:28:15.272Z,25.77
2019-02-21T02:30:41.725Z,27.03
2019-02-21T02:33:08.566Z,28.60
2019-02-21T02:35:34.872Z,17.60
2019-02-21T02:38:01.191Z,20.40
2019-02-21T02:40:27.755Z,23.43
2019-02-21T02:42:54.458Z,24.00
2019-02-21T02:45:20.793Z,23.30
2019-02-21T02:47:47.405Z,26.73
2019-02-21T02:50:13.759Z,24.73
2019-02-21T02:52:40.097Z,24.77
2019-02-21T02:55:06.791Z,26.80
2019-02-21T02:57:33.180Z,27.63
2019-02-21T02:59:59.538Z,21.80
2019-02-21T03:02:26.186Z,24.70
2019-02-21T03:04:52.528Z,24.20
2019-02-21T03:07:19.202Z,27.30
2019-02-21T03:09:45.760Z,27.77
2019-02-21T03:12:12.128Z,25.80
2019-02-21T03:14:38.559Z,28.80
2019-02-21T03:17:04.922Z,24.53
2019-02-21T03:19:31.264Z,28.30
2019-02-21T03:21:57.583Z,32.10
2019-02-21T03:24:24.256Z,25.70
2019-02-21T03:26:50.850Z,20.83
2019-02-21T03:29:17.204Z,21.20
2019-02-21T03:31:54.620Z,26.70
2019-02-21T03:34:12.000Z,22.70
2019-02-21T03:36:38.637Z,30.03
2019-02-21T03:39:07.019Z,27.73
2019-02-21T03:41:33.841Z,24.30
2019-02-21T03:44:00.416Z,24.00
2019-02-21T03:46:27.067Z,30.93
2019-02-21T03:48:53.780Z,28.30
2019-02-21T03:51:20.512Z,25.63
2019-02-21T03:53:47.991Z,24.90
2019-02-21T03:56:14.338Z,30.43
2019-02-21T03:58:43.348Z,26.53
2019-02-21T04:01:09.593Z,33.50
2019-02-21T04:03:36.030Z,30.37
2019-02-21T04:06:02.597Z,28.10
2019-02-21T04:08:28.910Z,27.33
2019-02-21T04:10:56.419Z,23.93
2019-02-21T04:13:23.002Z,24.57
2019-02-21T04:15:50.313Z,24.50
2019-02-21T04:18:16.625Z,26.80
2019-02-21T04:20:42.989Z,26.23
2019-02-21T04:23:09.547Z,31.70
2019-02-21T04:25:35.885Z,25.10
2019-02-21T04:28:02.182Z,25.40
2019-02-21T04:30:28.511Z,26.50
2019-02-21T04:32:54.865Z,25.77
2019-02-21T04:35:21.440Z,28.03
2019-02-21T04:37:48.079Z,29.00
2019-02-21T04:40:14.370Z,23.90
2019-02-21T04:42:40.736Z,29.30
2019-02-21T04:45:07.054Z,30.77
2019-02-21T04:47:33.417Z,28.77
2019-02-21T04:49:59.720Z,29.33
2019-02-21T04:52:26.364Z,28.50
2019-02-21T04:54:52.721Z,26.53
2019-02-21T04:57:20.140Z,25.90
2019-02-21T04:59:46.432Z,27.57
2019-02-21T05:02:12.981Z,28.73
2019-02-21T05:04:39.551Z,32.77
2019-02-21T05:07:05.887Z,27.20
2019-02-21T05:09:32.492Z,32.90
2019-02-21T05:11:58.775Z,24.43
2019-02-21T05:14:25.154Z,24.40
2019-02-21T05:16:51.470Z,22.70
2019-02-21T05:19:17.847Z,33.37
2019-02-21T05:21:44.200Z,21.67
2019-02-21T05:24:10.529Z,35.07
2019-02-21T05:26:39.197Z,24.07
2019-02-21T05:29:07.913Z,24.23
2019-02-21T05:31:45.364Z,23.97
2019-02-21T05:34:16.534Z,23.37
2019-02-21T05:36:44.843Z,27.90
2019-02-21T05:39:13.060Z,28.90
2019-02-21T05:41:49.950Z,31.13
2019-02-21T05:44:20.839Z,25.53
2019-02-21T05:46:49.447Z,26.97
2019-02-21T05:49:17.886Z,30.03
2019-02-21T05:51:46.090Z,28.67
2019-02-21T05:54:17.050Z,27.00
2019-02-21T05:56:58.883Z,23.93
2019-02-21T05:59:36.158Z,30.00
2019-02-21T06:02:19.412Z,31.20
2019-02-21T06:04:56.909Z,23.60
2019-02-21T06:07:23.500Z,22.93
2019-02-21T06:09:54.699Z,24.83
2019-02-21T06:12:33.138Z,34.97
2019-02-21T06:14:56.059Z,31.87
2019-02-21T06:17:30.068Z,30.13
2019-02-21T06:20:07.223Z,24.43
2019-02-21T06:22:38.418Z,29.37
2019-02-21T06:25:15.631Z,24.73
2019-02-21T06:27:43.917Z,31.40
2019-02-21T06:30:14.068Z,29.73
2019-02-21T06:32:40.940Z,20.17
2019-02-21T06:35:08.855Z,32.23
2019-02-21T06:37:37.783Z,24.27
2019-02-21T06:40:05.077Z,26.10
2019-02-21T06:42:31.447Z,22.53
2019-02-21T06:44:58.201Z,24.13
2019-02-21T06:47:24.545Z,33.83
2019-02-21T06:49:50.871Z,29.97
2019-02-21T06:52:17.320Z,23.83
2019-02-21T06:54:43.626Z,26.80
2019-02-21T06:57:10.243Z,32.80
2019-02-21T06:59:42.508Z,26.07
2019-02-21T07:02:06.070Z,28.57
2019-02-21T07:04:33.351Z,39.43
2019-02-21T07:06:59.846Z,25.23
2019-02-21T07:09:26.427Z,26.10
2019-02-21T07:11:53.023Z,30.40
2019-02-21T07:14:19.331Z,26.40
2019-02-21T07:16:45.641Z,30.13
2019-02-21T07:19:12.240Z,25.77
2019-02-21T07:21:38.601Z,24.33
2019-02-21T07:24:04.932Z,29.20
2019-02-21T07:26:31.276Z,25.83
2019-02-21T07:28:58.419Z,25.63
2019-02-21T07:31:28.870Z,24.53
2019-02-21T07:33:54.094Z,24.87
2019-02-21T07:36:20.683Z,26.13
2019-02-21T07:38:47.334Z,24.67
2019-02-21T07:41:15.104Z,22.17
2019-02-21T07:43:41.549Z,28.73
2019-02-21T07:46:08.181Z,24.60
2019-02-21T07:48:36.349Z,31.20
2019-02-21T07:51:02.798Z,26.90
2019-02-21T07:53:29.440Z,23.93
2019-02-21T07:55:56.065Z,37.77
2019-02-21T07:58:22.751Z,30.57
2019-02-21T08:00:49.399Z,32.60
2019-02-21T08:03:15.725Z,27.97
2019-02-21T08:05:42.633Z,35.20
2019-02-21T08:08:09.361Z,33.67
2019-02-21T08:10:36.165Z,30.07
2019-02-21T08:13:02.906Z,35.70
2019-02-21T08:15:29.213Z,33.47
2019-02-21T08:17:55.571Z,30.40
2019-02-21T08:20:33.206Z,32.73
2019-02-21T08:22:50.187Z,31.67
2019-02-21T08:25:19.115Z,29.77
2019-02-21T08:27:44.754Z,37.63
2019-02-21T08:30:13.900Z,33.27
2019-02-21T08:32:58.810Z,27.87
2019-02-21T08:35:25.433Z,33.83
2019-02-21T08:37:51.735Z,31.70
2019-02-21T08:40:18.334Z,29.33
2019-02-21T08:42:44.644Z,31.20
2019-02-21T08:45:11.276Z,36.20
2019-02-21T08:47:37.569Z,31.70
2019-02-21T08:50:04.484Z,27.60
2019-02-21T08:52:31.086Z,32.77
2019-02-21T08:55:00.430Z,34.23
2019-02-21T08:57:26.758Z,32.33
2019-02-21T08:59:53.134Z,26.60
2019-02-21T09:02:19.523Z,33.17
2019-02-21T09:04:46.222Z,32.10
2019-02-21T09:07:12.831Z,36.03
2019-02-21T09:09:39.206Z,34.40
2019-02-21T09:12:05.867Z,31.47
2019-02-21T09:14:32.323Z,32.20
2019-02-21T09:17:00.595Z,34.40
2019-02-21T09:19:27.247Z,37.60
2019-02-21T09:21:53.695Z,30.60
2019-02-21T09:24:37.442Z,35.60
2019-02-21T09:26:48.574Z,33.17
2019-02-21T09:29:14.923Z,37.37
2019-02-21T09:31:41.515Z,30.53
2019-02-21T09:34:07.901Z,35.70
2019-02-21T09:36:34.241Z,31.03
2019-02-21T09:39:00.561Z,38.00
2019-02-21T09:41:28.728Z,34.00
2019-02-21T09:43:55.136Z,37.00
2019-02-21T09:46:21.757Z,33.13
2019-02-21T09:48:49.105Z,31.97
2019-02-21T09:51:18.037Z,34.93
2019-02-21T09:53:44.787Z,30.43
2019-02-21T09:56:11.104Z,32.90
2019-02-21T09:58:37.705Z,34.20
2019-02-21T10:01:04.058Z,36.00
2019-02-21T10:03:30.531Z,34.03
2019-02-21T10:05:57.195Z,29.33
2019-02-21T10:08:23.926Z,37.77
2019-02-21T10:10:50.530Z,30.90
2019-02-21T10:13:17.222Z,34.53
2019-02-21T10:15:43.573Z,37.20
2019-02-21T10:18:10.392Z,32.40
2019-02-21T10:20:36.965Z,32.80
2019-02-21T10:23:03.560Z,28.37
2019-02-21T10:25:30.181Z,45.20
2019-02-21T10:27:58.803Z,41.20
2019-02-21T10:30:25.137Z,34.10
2019-02-21T10:32:51.486Z,40.47
2019-02-21T10:35:18.131Z,35.47
2019-02-21T10:37:44.476Z,30.43
2019-02-21T10:40:13.636Z,30.90
2019-02-21T10:42:40.295Z,35.23
2019-02-21T10:45:18.337Z,37.23
2019-02-21T10:47:44.652Z,34.60
2019-02-21T10:50:21.182Z,30.70
2019-02-21T10:52:47.927Z,35.27
2019-02-21T10:55:15.058Z,37.73
2019-02-21T10:57:41.731Z,26.63
2019-02-21T11:00:14.002Z,36.17
2019-02-21T11:02:40.718Z,31.57
2019-02-21T11:05:08.412Z,29.70
2019-02-21T11:07:34.866Z,35.70
2019-02-21T11:10:02.102Z,37.13
2019-02-21T11:12:29.803Z,34.20
2019-02-21T11:14:57.124Z,30.93
2019-02-21T11:17:25.762Z,32.47
2019-02-21T11:19:51.972Z,33.20
2019-02-21T11:22:18.836Z,35.30
2019-02-21T11:24:45.468Z,32.07
2019-02-21T11:27:12.037Z,31.67
2019-02-21T11:29:38.834Z,33.70
2019-02-21T11:32:05.607Z,37.60
2019-02-21T11:34:31.959Z,29.77
2019-02-21T11:36:58.275Z,28.60
2019-02-21T11:39:24.575Z,31.00
2019-02-21T11:41:51.945Z,28.30
2019-02-21T11:44:18.438Z,33.33
2019-02-21T11:46:45.100Z,30.90
2019-02-21T11:49:11.452Z,28.63
2019-02-21T11:51:38.076Z,28.93
2019-02-21T11:54:04.695Z,33.00
2019-02-21T11:56:31.307Z,34.47
2019-02-21T11:58:57.905Z,33.80
2019-02-21T12:01:24.566Z,46.37
2019-02-21T12:03:51.257Z,40.20
2019-02-21T12:06:17.662Z,27.77
2019-02-21T12:08:44.120Z,27.33
2019-02-21T12:11:10.555Z,38.80
2019-02-21T12:13:37.117Z,45.57
2019-02-21T12:16:03.816Z,40.20
2019-02-21T12:18:31.449Z,41.73
2019-02-21T12:21:01.063Z,27.37
2019-02-21T12:23:27.489Z,24.53
2019-02-21T12:25:53.815Z,29.60
2019-02-21T12:28:20.146Z,30.23
2019-02-21T12:30:46.453Z,31.73
2019-02-21T12:33:12.780Z,32.90
2019-02-21T12:35:39.114Z,26.93
2019-02-21T12:38:05.683Z,26.53
2019-02-21T12:40:32.032Z,24.73
2019-02-21T12:42:58.636Z,26.43
2019-02-21T12:45:25.667Z,29.33
2019-02-21T12:47:53.839Z,25.40
2019-02-21T12:50:20.334Z,22.30
2019-02-21T12:52:46.639Z,24.60
2019-02-21T12:55:12.943Z,24.13
2019-02-21T12:57:39.552Z,23.00
2019-02-21T13:00:12.635Z,23.03
2019-02-21T13:02:39.333Z,26.23
2019-02-21T13:05:06.179Z,28.50
2019-02-21T13:07:32.809Z,22.40
2019-02-21T13:09:59.116Z,21.27
2019-02-21T13:12:25.724Z,22.30
2019-02-21T13:14:52.061Z,22.60
2019-02-21T13:17:18.405Z,19.20
2019-02-21T13:19:44.840Z,24.60
2019-02-21T13:22:11.517Z,18.33
2019-02-21T13:24:38.000Z,18.80
2019-02-21T13:27:04.404Z,22.63
2019-02-21T13:29:30.739Z,21.53
2019-02-21T13:31:57.305Z,22.90
2019-02-21T13:34:23.942Z,21.27
2019-02-21T13:36:50.679Z,19.27
2019-02-21T13:39:17.020Z,19.13
2019-02-21T13:41:43.321Z,20.87
2019-02-21T13:44:10.780Z,26.07
2019-02-21T13:46:40.687Z,18.77
2019-02-21T13:49:05.418Z,21.57
2019-02-21T13:51:32.293Z,20.47
2019-02-21T13:53:58.636Z,19.03
2019-02-21T13:56:25.285Z,21.10
2019-02-21T13:58:51.894Z,21.23
2019-02-21T14:01:18.268Z,18.63
2019-02-21T14:03:45.623Z,28.77
2019-02-21T14:06:12.042Z,21.73
2019-02-21T14:08:39.494Z,23.80
2019-02-21T14:11:06.169Z,18.30
2019-02-21T14:13:32.478Z,23.00
2019-02-21T14:15:58.820Z,20.43
2019-02-21T14:18:26.952Z,20.23
2019-02-21T14:20:53.314Z,22.83
2019-02-21T14:23:19.681Z,22.03
2019-02-21T14:25:46.032Z,27.23
2019-02-21T14:28:12.375Z,26.10
2019-02-21T14:30:38.948Z,22.70
2019-02-21T14:33:05.584Z,30.43
2019-02-21T14:35:32.195Z,25.87
2019-02-21T14:37:58.816Z,27.53
2019-02-21T14:40:25.480Z,23.17
2019-02-21T14:42:52.140Z,25.07
2019-02-21T14:45:22.578Z,25.93
2019-02-21T14:47:49.230Z,27.10
2019-02-21T14:50:15.725Z,24.07
2019-02-21T14:52:43.177Z,27.37
2019-02-21T14:55:13.167Z,25.23
2019-02-21T14:57:41.077Z,24.37
2019-02-21T15:00:14.306Z,30.93
2019-02-21T15:02:41.922Z,28.60
2019-02-21T15:05:10.149Z,27.23
2019-02-21T15:07:37.554Z,27.50
2019-02-21T15:10:07.151Z,28.57
2019-02-21T15:12:35.623Z,27.90
2019-02-21T15:15:05.248Z,27.40
2019-02-21T15:17:32.167Z,23.03
2019-02-21T15:19:58.786Z,31.03
2019-02-21T15:22:25.103Z,31.53
2019-02-21T15:24:51.788Z,26.60
2019-02-21T15:27:18.175Z,26.50
2019-02-21T15:29:44.507Z,30.13
2019-02-21T15:32:13.439Z,27.80
2019-02-21T15:34:39.390Z,33.63
2019-02-21T15:37:05.731Z,28.10
2019-02-21T15:39:32.303Z,27.63
2019-02-21T15:41:59.196Z,22.40
2019-02-21T15:44:25.522Z,25.80
2019-02-21T15:46:51.826Z,29.97
2019-02-21T15:49:18.202Z,23.17
2019-02-21T15:51:44.655Z,27.33
2019-02-21T15:54:12.571Z,28.67
2019-02-21T15:56:38.971Z,27.87
2019-02-21T15:59:05.696Z,27.43
2019-02-21T16:01:32.033Z,32.00
2019-02-21T16:03:58.374Z,26.37
2019-02-21T16:06:24.662Z,22.60
2019-02-21T16:08:50.983Z,30.77
2019-02-21T16:11:17.301Z,31.67
2019-02-21T16:13:43.648Z,26.60
2019-02-21T16:16:10.296Z,29.47
2019-02-21T16:18:36.622Z,27.87
2019-02-21T16:21:03.990Z,23.13
2019-02-21T16:23:30.718Z,25.30
2019-02-21T16:25:57.078Z,24.00
2019-02-21T16:28:23.459Z,29.00
2019-02-21T16:30:50.105Z,25.33
2019-02-21T16:33:16.758Z,26.37
2019-02-21T16:35:46.230Z,20.83
2019-02-21T16:38:12.573Z,23.73
2019-02-21T16:40:39.178Z,23.40
2019-02-21T16:43:05.777Z,28.90
2019-02-21T16:45:42.914Z,31.57
2019-02-21T16:48:00.547Z,26.13
2019-02-21T16:50:30.094Z,25.70
2019-02-21T16:52:55.178Z,26.60
2019-02-21T16:55:23.351Z,26.30
2019-02-21T16:57:51.043Z,22.13
2019-02-21T17:00:22.463Z,25.70
2019-02-21T17:02:49.320Z,26.57
2019-02-21T17:05:15.700Z,25.37
2019-02-21T17:07:42.451Z,23.97
2019-02-21T17:10:11.871Z,20.83
2019-02-21T17:12:38.261Z,26.03
2019-02-21T17:15:14.625Z,22.83
2019-02-21T17:17:41.360Z,22.63
2019-02-21T17:20:22.884Z,20.67
2019-02-21T17:22:49.238Z,26.03
2019-02-21T17:25:15.883Z,21.90
2019-02-21T17:27:44.082Z,21.10
2019-02-21T17:30:14.179Z,21.70
2019-02-21T17:32:40.783Z,18.67
2019-02-21T17:35:07.213Z,17.47
2019-02-21T17:37:33.869Z,22.50
2019-02-21T17:40:01.491Z,18.67
2019-02-21T17:42:28.441Z,16.40
2019-02-21T17:44:54.806Z,18.33
2019-02-21T17:47:21.408Z,17.80
2019-02-21T17:49:47.773Z,20.47
2019-02-21T17:52:14.106Z,20.40
2019-02-21T17:54:40.681Z,22.83
2019-02-21T17:57:06.998Z,13.20
2019-02-21T17:59:33.500Z,17.67
2019-02-21T18:02:00.224Z,18.87
2019-02-21T18:04:26.915Z,21.00
2019-02-21T18:06:53.678Z,23.77
2019-02-21T18:09:20.284Z,21.07
2019-02-21T18:11:47.063Z,19.70
2019-02-21T18:14:14.451Z,25.87
2019-02-21T18:16:40.787Z,21.00
2019-02-21T18:19:07.408Z,20.03
2019-02-21T18:21:33.975Z,24.17
2019-02-21T18:24:00.404Z,27.63
2019-02-21T18:26:26.720Z,25.47
2019-02-21T18:28:53.349Z,19.60
2019-02-21T18:31:21.597Z,25.13
2019-02-21T18:33:48.322Z,21.63
2019-02-21T18:36:16.318Z,24.57
2019-02-21T18:38:42.897Z,23.40
2019-02-21T18:41:09.570Z,27.50
2019-02-21T18:43:36.527Z,27.20
2019-02-21T18:46:03.130Z,31.23
2019-02-21T18:48:29.714Z,28.50
2019-02-21T18:50:56.324Z,27.27
2019-02-21T18:53:22.623Z,29.67
2019-02-21T18:55:49.051Z,29.13
2019-02-21T18:58:15.862Z,32.00
2019-02-21T19:00:43.035Z,23.83
2019-02-21T19:03:09.570Z,29.50
2019-02-21T19:05:36.854Z,31.87
2019-02-21T19:08:05.391Z,30.23
2019-02-21T19:10:35.252Z,29.97
2019-02-21T19:13:01.928Z,27.00
2019-02-21T19:15:29.317Z,28.63
2019-02-21T19:17:55.920Z,28.17
2019-02-21T19:20:22.416Z,29.80
2019-02-21T19:22:49.548Z,37.27
2019-02-21T19:25:16.034Z,30.17
2019-02-21T19:27:42.661Z,29.87
2019-02-21T19:30:26.142Z,31.60
2019-02-21T19:32:52.591Z,25.80
2019-02-21T19:35:19.119Z,30.23
2019-02-21T19:37:45.890Z,30.00
2019-02-21T19:40:13.035Z,29.30
2019-02-21T19:42:39.338Z,35.00
2019-02-21T19:45:08.816Z,30.40
2019-02-21T19:47:35.403Z,31.73
2019-02-21T19:50:06.653Z,31.27
2019-02-21T19:52:32.975Z,31.23
2019-02-21T19:54:59.656Z,32.43
2019-02-21T19:57:26.294Z,31.67
2019-02-21T19:59:52.973Z,36.83
2019-02-21T20:02:19.690Z,33.70
2019-02-21T20:04:46.565Z,32.63
2019-02-21T20:07:13.227Z,38.60
2019-02-21T20:09:39.911Z,40.87
2019-02-21T20:12:06.728Z,35.50
2019-02-21T20:14:33.104Z,38.83
2019-02-21T20:17:02.646Z,37.13
2019-02-21T20:19:29.400Z,38.77
2019-02-21T20:21:55.763Z,41.53
2019-02-21T20:24:22.191Z,44.33
2019-02-21T20:26:48.917Z,44.10
2019-02-21T20:29:15.532Z,35.70
2019-02-21T20:31:41.926Z,37.60
2019-02-21T20:34:08.599Z,39.90
2019-02-21T20:36:35.130Z,40.67
2019-02-21T20:39:01.827Z,41.17
2019-02-21T20:41:30.062Z,44.33
2019-02-21T20:43:56.450Z,44.03
2019-02-21T20:46:23.251Z,42.10
2019-02-21T20:48:49.722Z,40.80
2019-02-21T20:51:16.333Z,47.03
2019-02-21T20:53:45.403Z,42.63
2019-02-21T20:56:13.311Z,44.40
2019-02-21T20:58:42.525Z,48.20
2019-02-21T21:01:09.336Z,47.20
2019-02-21T21:03:36.544Z,47.47
2019-02-21T21:06:02.946Z,55.50
2019-02-21T21:08:29.322Z,54.80
2019-02-21T21:10:56.052Z,49.70
2019-02-21T21:13:22.436Z,56.00
2019-02-21T21:15:48.863Z,56.27
2019-02-21T21:18:15.736Z,55.90
2019-02-21T21:20:42.108Z,53.83
2019-02-21T21:23:08.641Z,55.90
2019-02-21T21:25:43.127Z,59.60
2019-02-21T21:28:09.883Z,54.73
2019-02-21T21:30:36.771Z,53.00
2019-02-21T21:33:03.652Z,52.60
2019-02-21T21:35:30.424Z,54.67
2019-02-21T21:37:56.869Z,58.80
2019-02-21T21:40:24.371Z,57.20
2019-02-21T21:42:51.433Z,57.93
2019-02-21T21:45:18.317Z,60.00
2019-02-21T21:47:44.976Z,61.23
2019-02-21T21:50:15.236Z,59.07
2019-02-21T21:52:41.906Z,61.00
2019-02-21T21:55:08.644Z,57.43
2019-02-21T21:57:35.315Z,62.30
2019-02-21T22:00:06.591Z,61.77
2019-02-21T22:02:35.271Z,70.10
2019-02-21T22:05:01.781Z,63.10
2019-02-21T22:07:29.241Z,72.27
2019-02-21T22:09:55.860Z,60.80
2019-02-21T22:12:22.540Z,65.73
2019-02-21T22:14:48.915Z,78.50
2019-02-21T22:17:15.273Z,67.80
2019-02-21T22:19:41.743Z,72.37
2019-02-21T22:22:08.178Z,80.70
2019-02-21T22:24:35.209Z,77.40
2019-02-21T22:27:01.815Z,79.80
2019-02-21T22:29:28.434Z,87.93
2019-02-21T22:31:54.756Z,87.43
2019-02-21T22:34:23.530Z,82.50
2019-02-21T22:36:49.862Z,85.87
2019-02-21T22:39:16.852Z,99.80
2019-02-21T22:41:44.937Z,93.73
2019-02-21T22:44:11.616Z,102.73
2019-02-21T22:46:38.210Z,92.50
2019-02-21T22:49:04.786Z,94.33
2019-02-21T22:51:31.163Z,93.73
2019-02-21T22:53:57.857Z,98.20
2019-02-21T22:56:24.262Z,95.07
2019-02-21T22:58:50.655Z,83.20
2019-02-21T23:01:22.271Z,70.03
2019-02-21T23:03:55.121Z,89.90
2019-02-21T23:06:47.802Z,81.60
2019-02-21T23:09:26.635Z,80.80
2019-02-21T23:11:45.637Z,76.13
2019-02-21T23:14:14.578Z,88.33
2019-02-21T23:16:41.274Z,83.70
2019-02-21T23:19:07.644Z,86.33
2019-02-21T23:21:33.965Z,83.70
2019-02-21T23:24:00.641Z,90.93
2019-02-21T23:26:28.760Z,76.20
2019-02-21T23:28:55.505Z,80.73
2019-02-21T23:31:22.095Z,78.43
2019-02-21T23:33:50.417Z,90.70
2019-02-21T23:36:17.232Z,75.03
2019-02-21T23:38:43.570Z,83.93
2019-02-21T23:41:10.995Z,84.83
2019-02-21T23:43:37.333Z,85.67
2019-02-21T23:46:03.835Z,81.80
2019-02-21T23:48:30.438Z,80.97
2019-02-21T23:50:56.753Z,90.30
2019-02-21T23:53:23.081Z,91.63
2019-02-21T23:55:49.502Z,80.93
2019-02-21T23:58:16.879Z,83.40
